Time,TemperatureF,DewpointF,PressureIn,WindDirection,WindDirectionDegrees,WindSpeedMPH,WindSpeedGustMPH,Humidity,HourlyPrecipIn,Conditions,Clouds,dailyrainin,SoftwareType,DateUTC
2013-07-01 00:05:00,63.0,55.7,29.68,NW,315,2.7,-999.0,77,-99.99,,,0.00,Acu-Link.com,2013-07-01 07:05:00,
2013-07-01 00:21:00,62.6,55.6,29.69,NW,315,0.0,-999.0,78,-99.99,,,0.00,Acu-Link.com,2013-07-01 07:21:00,
2013-07-01 00:36:00,62.4,55.4,29.68,NW,315,0.0,-999.0,78,-99.99,,,0.00,Acu-Link.com,2013-07-01 07:36:00,
2013-07-01 00:51:00,61.9,54.6,29.68,NW,315,0.0,-999.0,77,-99.99,,,0.00,Acu-Link.com,2013-07-01 07:51:00,
2013-07-01 01:07:00,61.5,54.9,29.69,NW,315,0.0,-999.0,79,-99.99,,,0.00,Acu-Link.com,2013-07-01 08:07:00,
2013-07-01 01:22:00,61.0,54.8,29.69,NW,315,0.0,-999.0,80,-99.99,,,0.00,Acu-Link.com,2013-07-01 08:22:00,
2013-07-01 01:37:00,61.0,55.1,29.69,NW,315,0.0,-999.0,81,-99.99,,,0.00,Acu-Link.com,2013-07-01 08:37:00,
2013-07-01 01:52:00,61.2,55.7,29.68,NW,315,0.0,-999.0,82,-99.99,,,0.00,Acu-Link.com,2013-07-01 08:52:00,
2013-07-01 02:07:00,60.3,54.4,29.69,NW,315,0.0,-999.0,81,-99.99,,,0.00,Acu-Link.com,2013-07-01 09:07:00,
2013-07-01 02:22:00,59.9,54.4,29.70,NW,315,0.0,-999.0,82,-99.99,,,0.00,Acu-Link.com,2013-07-01 09:22:00,
2013-07-01 02:38:00,59.7,54.9,29.70,NW,315,0.0,-999.0,84,-99.99,,,0.00,Acu-Link.com,2013-07-01 09:38:00,
2013-07-01 02:53:00,59.0,53.8,29.70,NW,315,0.0,-999.0,83,-99.99,,,0.00,Acu-Link.com,2013-07-01 09:53:00,
2013-07-01 03:08:00,59.4,55.5,29.70,NW,315,0.0,-999.0,87,-99.99,,,0.00,Acu-Link.com,2013-07-01 10:08:00,
2013-07-01 03:23:00,59.5,55.6,29.70,NW,315,0.0,-999.0,87,-99.99,,,0.00,Acu-Link.com,2013-07-01 10:23:00,
2013-07-01 03:39:00,59.2,54.7,29.69,NW,315,0.0,-999.0,85,-99.99,,,0.00,Acu-Link.com,2013-07-01 10:39:00,
2013-07-01 03:54:00,59.2,55.3,29.70,NW,315,0.0,-999.0,87,-99.99,,,0.00,Acu-Link.com,2013-07-01 10:54:00,
2013-07-01 04:09:00,60.6,57.0,29.71,NW,315,0.0,-999.0,88,-99.99,,,0.00,Acu-Link.com,2013-07-01 11:09:00,
2013-07-01 04:24:00,59.7,55.5,29.71,NW,315,0.0,-999.0,86,-99.99,,,0.00,Acu-Link.com,2013-07-01 11:24:00,
2013-07-01 04:39:00,59.4,55.5,29.71,NW,315,0.0,-999.0,87,-99.99,,,0.00,Acu-Link.com,2013-07-01 11:39:00,
2013-07-01 04:55:00,59.0,54.8,29.72,NW,315,0.0,-999.0,86,-99.99,,,0.00,Acu-Link.com,2013-07-01 11:55:00,
2013-07-01 05:10:00,58.3,54.4,29.72,NW,315,0.0,-999.0,87,-99.99,,,0.00,Acu-Link.com,2013-07-01 12:10:00,
2013-07-01 05:25:00,58.6,55.7,29.72,NW,315,0.0,-999.0,90,-99.99,,,0.00,Acu-Link.com,2013-07-01 12:25:00,
2013-07-01 05:41:00,57.9,54.7,29.72,NW,315,0.0,-999.0,89,-99.99,,,0.00,Acu-Link.com,2013-07-01 12:41:00,
2013-07-01 05:56:00,57.6,54.7,29.72,NNW,337,2.2,-999.0,90,-99.99,,,0.00,Acu-Link.com,2013-07-01 12:56:00,
2013-07-01 06:11:00,57.6,55.0,29.73,NNW,337,0.0,-999.0,91,-99.99,,,0.00,Acu-Link.com,2013-07-01 13:11:00,
2013-07-01 06:27:00,58.3,55.7,29.72,NNW,337,1.1,-999.0,91,-99.99,,,0.00,Acu-Link.com,2013-07-01 13:27:00,
2013-07-01 06:42:00,59.0,55.4,29.74,NNW,337,0.0,-999.0,88,-99.99,,,0.00,Acu-Link.com,2013-07-01 13:42:00,
2013-07-01 06:57:00,59.2,55.6,29.75,NNW,337,0.0,-999.0,88,-99.99,,,0.00,Acu-Link.com,2013-07-01 13:57:00,
2013-07-01 07:12:00,60.6,56.4,29.78,NNW,337,0.0,-999.0,86,-99.99,,,0.00,Acu-Link.com,2013-07-01 14:12:00,
2013-07-01 07:27:00,61.5,56.9,29.77,NNW,337,0.0,-999.0,85,-99.99,,,0.00,Acu-Link.com,2013-07-01 14:27:00,
2013-07-01 07:43:00,62.8,58.5,29.76,NNW,337,1.7,-999.0,86,-99.99,,,0.00,Acu-Link.com,2013-07-01 14:43:00,
2013-07-01 07:58:00,63.0,58.7,29.76,NNW,337,1.7,-999.0,86,-99.99,,,0.00,Acu-Link.com,2013-07-01 14:58:00,
2013-07-01 08:13:00,65.7,59.7,29.76,NNW,337,2.7,-999.0,81,-99.99,,,0.00,Acu-Link.com,2013-07-01 15:13:00,
2013-07-01 08:29:00,67.1,60.0,29.77,NNW,337,0.0,-999.0,78,-99.99,,,0.00,Acu-Link.com,2013-07-01 15:29:00,
2013-07-01 08:44:00,69.6,60.2,29.77,NNW,337,2.7,-999.0,72,-99.99,,,0.00,Acu-Link.com,2013-07-01 15:44:00,
2013-07-01 08:59:00,73.6,61.1,29.75,NNW,337,0.0,-999.0,65,-99.99,,,0.00,Acu-Link.com,2013-07-01 15:59:00,
2013-07-01 09:15:00,75.6,61.2,29.75,ESE,112,1.1,-999.0,61,-99.99,,,0.00,Acu-Link.com,2013-07-01 16:15:00,
2013-07-01 09:30:00,78.4,61.4,29.75,NNW,337,2.2,-999.0,56,-99.99,,,0.00,Acu-Link.com,2013-07-01 16:30:00,
2013-07-01 09:45:00,80.2,61.5,29.76,NNW,337,2.7,-999.0,53,-99.99,,,0.00,Acu-Link.com,2013-07-01 16:45:00,
2013-07-01 10:00:00,82.0,62.1,29.76,NNW,337,3.7,-999.0,51,-99.99,,,0.00,Acu-Link.com,2013-07-01 17:00:00,
2013-07-01 10:15:00,84.0,63.3,29.75,NNW,337,2.2,-999.0,50,-99.99,,,0.00,Acu-Link.com,2013-07-01 17:15:00,
2013-07-01 10:30:00,83.1,61.9,29.76,NNW,337,3.7,-999.0,49,-99.99,,,0.00,Acu-Link.com,2013-07-01 17:30:00,
2013-07-01 10:46:00,85.8,62.6,29.78,NNW,337,1.7,-999.0,46,-99.99,,,0.00,Acu-Link.com,2013-07-01 17:46:00,
2013-07-01 11:02:00,83.7,60.7,29.77,NNW,337,3.2,-999.0,46,-99.99,,,0.00,Acu-Link.com,2013-07-01 18:02:00,
2013-07-01 11:17:00,85.8,62.0,29.77,NNW,337,2.7,-999.0,45,-99.99,,,0.00,Acu-Link.com,2013-07-01 18:17:00,
2013-07-01 11:32:00,90.3,63.4,29.76,NNW,337,2.7,-999.0,41,-99.99,,,0.00,Acu-Link.com,2013-07-01 18:32:00,
2013-07-01 11:47:00,87.8,63.8,29.75,North,0,2.7,-999.0,45,-99.99,,,0.00,Acu-Link.com,2013-07-01 18:47:00,
2013-07-01 12:02:00,91.0,64.7,29.76,WNW,292,3.2,-999.0,42,-99.99,,,0.00,Acu-Link.com,2013-07-01 19:02:00,
2013-07-01 12:18:00,90.5,64.2,29.76,NNE,22,5.3,-999.0,42,-99.99,,,0.00,Acu-Link.com,2013-07-01 19:18:00,
2013-07-01 12:33:00,91.0,64.7,29.77,NNW,337,6.3,-999.0,42,-99.99,,,0.00,Acu-Link.com,2013-07-01 19:33:00,
2013-07-01 12:48:00,90.3,64.1,29.77,NNW,337,4.2,-999.0,42,-99.99,,,0.00,Acu-Link.com,2013-07-01 19:48:00,
2013-07-01 13:03:00,91.4,63.6,29.76,North,0,4.7,-999.0,40,-99.99,,,0.00,Acu-Link.com,2013-07-01 20:03:00,
2013-07-01 13:18:00,89.2,61.7,29.77,NNW,337,5.3,-999.0,40,-99.99,,,0.00,Acu-Link.com,2013-07-01 20:18:00,
2013-07-01 13:33:00,93.0,62.8,29.77,NNE,22,3.2,-999.0,37,-99.99,,,0.00,Acu-Link.com,2013-07-01 20:33:00,
2013-07-01 13:49:00,92.1,62.8,29.78,NNW,337,3.7,-999.0,38,-99.99,,,0.00,Acu-Link.com,2013-07-01 20:49:00,
2013-07-01 14:04:00,91.4,63.6,29.79,North,0,4.7,-999.0,40,-99.99,,,0.00,Acu-Link.com,2013-07-01 21:04:00,
2013-07-01 14:19:00,91.8,64.7,29.77,NNE,22,4.7,-999.0,41,-99.99,,,0.00,Acu-Link.com,2013-07-01 21:19:00,
2013-07-01 14:34:00,93.7,64.2,29.77,WNW,292,3.2,-999.0,38,-99.99,,,0.00,Acu-Link.com,2013-07-01 21:34:00,
2013-07-01 14:49:00,91.9,63.4,29.77,NNW,337,5.3,-999.0,39,-99.99,,,0.00,Acu-Link.com,2013-07-01 21:49:00,
2013-07-01 15:04:00,93.0,63.6,29.77,North,0,4.2,-999.0,38,-99.99,,,0.00,Acu-Link.com,2013-07-01 22:04:00,
2013-07-01 15:20:00,92.7,63.3,29.77,NNW,337,4.2,-999.0,38,-99.99,,,0.00,Acu-Link.com,2013-07-01 22:20:00,
2013-07-01 15:35:00,94.6,63.5,29.77,NNW,337,3.2,-999.0,36,-99.99,,,0.00,Acu-Link.com,2013-07-01 22:35:00,
2013-07-01 15:50:00,95.2,63.2,29.77,NNW,337,3.7,-999.0,35,-99.99,,,0.00,Acu-Link.com,2013-07-01 22:50:00,
2013-07-01 16:05:00,94.8,64.4,29.75,NNW,337,4.7,-999.0,37,-99.99,,,0.00,Acu-Link.com,2013-07-01 23:05:00,
2013-07-01 16:21:00,93.2,63.0,29.74,NNW,337,2.7,-999.0,37,-99.99,,,0.00,Acu-Link.com,2013-07-01 23:21:00,
2013-07-01 16:36:00,92.7,62.6,29.73,East,90,2.7,-999.0,37,-99.99,,,0.00,Acu-Link.com,2013-07-01 23:36:00,
2013-07-01 16:51:00,92.1,62.8,29.74,NNE,22,2.2,-999.0,38,-99.99,,,0.00,Acu-Link.com,2013-07-01 23:51:00,
2013-07-01 17:07:00,90.1,61.8,29.74,East,90,3.2,-999.0,39,-99.99,,,0.00,Acu-Link.com,2013-07-02 00:07:00,
2013-07-01 17:22:00,90.5,62.1,29.73,NNW,337,2.7,-999.0,39,-99.99,,,0.00,Acu-Link.com,2013-07-02 00:22:00,
2013-07-01 17:37:00,90.3,61.9,29.75,NNW,337,3.7,-999.0,39,-99.99,,,0.00,Acu-Link.com,2013-07-02 00:37:00,
2013-07-01 17:52:00,88.5,61.8,29.74,NNW,337,1.7,-999.0,41,-99.99,,,0.00,Acu-Link.com,2013-07-02 00:52:00,
2013-07-01 18:07:00,85.1,62.0,29.73,ENE,67,2.7,-999.0,46,-99.99,,,0.00,Acu-Link.com,2013-07-02 01:07:00,
2013-07-01 18:23:00,86.2,61.7,29.73,NNW,337,2.7,-999.0,44,-99.99,,,0.00,Acu-Link.com,2013-07-02 01:23:00,
2013-07-01 18:38:00,86.5,61.3,29.74,NNE,22,0.0,-999.0,43,-99.99,,,0.00,Acu-Link.com,2013-07-02 01:38:00,
2013-07-01 18:53:00,88.0,62.0,29.73,East,90,2.2,-999.0,42,-99.99,,,0.00,Acu-Link.com,2013-07-02 01:53:00,
2013-07-01 19:09:00,83.5,61.1,29.73,NE,45,2.2,-999.0,47,-99.99,,,0.00,Acu-Link.com,2013-07-02 02:09:00,
2013-07-01 19:24:00,80.4,61.1,29.75,NNE,22,2.7,-999.0,52,-99.99,,,0.00,Acu-Link.com,2013-07-02 02:24:00,
2013-07-01 19:39:00,79.2,60.6,29.74,NNW,337,2.2,-999.0,53,-99.99,,,0.00,Acu-Link.com,2013-07-02 02:39:00,
2013-07-01 19:55:00,77.2,60.8,29.76,NE,45,2.7,-999.0,57,-99.99,,,0.00,Acu-Link.com,2013-07-02 02:55:00,
2013-07-01 20:10:00,74.7,60.3,29.76,ENE,67,2.2,-999.0,61,-99.99,,,0.00,Acu-Link.com,2013-07-02 03:10:00,
2013-07-01 20:25:00,73.0,59.6,29.76,North,0,2.2,-999.0,63,-99.99,,,0.00,Acu-Link.com,2013-07-02 03:25:00,
2013-07-01 20:40:00,73.0,60.1,29.74,North,0,2.2,-999.0,64,-99.99,,,0.00,Acu-Link.com,2013-07-02 03:40:00,
2013-07-01 20:55:00,73.0,60.1,29.73,North,0,0.0,-999.0,64,-99.99,,,0.00,Acu-Link.com,2013-07-02 03:55:00,
2013-07-01 21:11:00,72.0,59.6,29.75,North,0,2.7,-999.0,65,-99.99,,,0.00,Acu-Link.com,2013-07-02 04:11:00,
2013-07-01 21:26:00,70.2,59.1,29.75,ENE,67,0.0,-999.0,68,-99.99,,,0.00,Acu-Link.com,2013-07-02 04:26:00,
2013-07-01 21:41:00,70.0,58.9,29.74,ENE,67,0.0,-999.0,68,-99.99,,,0.00,Acu-Link.com,2013-07-02 04:41:00,
2013-07-01 21:56:00,69.8,58.8,29.75,ENE,67,0.0,-999.0,68,-99.99,,,0.00,Acu-Link.com,2013-07-02 04:56:00,
2013-07-01 22:12:00,69.4,58.8,29.75,ENE,67,0.0,-999.0,69,-99.99,,,0.00,Acu-Link.com,2013-07-02 05:12:00,
2013-07-01 22:27:00,68.9,58.7,29.74,ENE,67,2.2,-999.0,70,-99.99,,,0.00,Acu-Link.com,2013-07-02 05:27:00,
2013-07-01 22:42:00,68.9,58.7,29.75,ENE,67,0.0,-999.0,70,-99.99,,,0.00,Acu-Link.com,2013-07-02 05:42:00,
2013-07-01 22:58:00,68.9,58.7,29.75,ENE,67,0.0,-999.0,70,-99.99,,,0.00,Acu-Link.com,2013-07-02 05:58:00,
2013-07-01 23:13:00,68.4,58.6,29.76,ENE,67,0.0,-999.0,71,-99.99,,,0.00,Acu-Link.com,2013-07-02 06:13:00,
2013-07-01 23:28:00,67.8,58.0,29.76,ENE,67,0.0,-999.0,71,-99.99,,,0.00,Acu-Link.com,2013-07-02 06:28:00,
2013-07-01 23:43:00,67.5,58.1,29.75,ENE,67,0.0,-999.0,72,-99.99,,,0.00,Acu-Link.com,2013-07-02 06:43:00,
2013-07-01 23:59:00,66.9,58.0,29.75,ENE,67,3.7,-999.0,73,-99.99,,,0.00,Acu-Link.com,2013-07-02 06:59:00,